createdAt,value
2017-01-04T00:00:36.087Z,18.29
2017-01-04T00:01:36.071Z,18.77
2017-01-04T00:02:36.047Z,18.77
2017-01-04T00:03:36.026Z,18.67
2017-01-04T00:04:36.009Z,18.58
2017-01-04T00:05:35.986Z,18.39
2017-01-04T00:06:35.963Z,18.77
2017-01-04T00:07:35.946Z,18.77
2017-01-04T00:08:35.922Z,18.67
2017-01-04T00:09:35.905Z,18.67
2017-01-04T00:10:35.880Z,18.67
2017-01-04T00:11:35.859Z,18.86
2017-01-04T00:12:35.858Z,18.67
2017-01-04T00:13:35.820Z,18.2
2017-01-04T00:14:35.802Z,18.39
2017-01-04T00:15:35.775Z,18.29
2017-01-04T00:16:35.755Z,18.29
2017-01-04T00:17:35.741Z,18.39
2017-01-04T00:18:35.717Z,18.39
2017-01-04T00:19:35.695Z,18.29
2017-01-04T00:20:35.673Z,18.39
2017-01-04T00:21:35.651Z,18.58
2017-01-04T00:22:35.630Z,18.48
2017-01-04T00:23:35.613Z,18.48
2017-01-04T00:24:36.035Z,18.48
2017-01-04T00:25:35.566Z,18.29
2017-01-04T00:26:35.546Z,18.2
2017-01-04T00:27:35.526Z,18.29
2017-01-04T00:28:35.510Z,18.48
2017-01-04T00:29:35.485Z,18.58
2017-01-04T00:30:35.466Z,18.29
2017-01-04T00:31:35.440Z,18.48
2017-01-04T00:32:35.422Z,18.48
2017-01-04T00:33:35.400Z,18.29
2017-01-04T00:34:35.378Z,18.2
2017-01-04T00:35:35.410Z,18.2
2017-01-04T00:36:35.337Z,18.49
2017-01-04T00:37:35.350Z,18.48
2017-01-04T00:38:35.297Z,18.29
2017-01-04T00:39:35.281Z,18.67
2017-01-04T00:40:35.352Z,18.39
2017-01-04T00:41:35.231Z,18.86
2017-01-04T00:42:35.213Z,18.58
2017-01-04T00:43:35.196Z,18.86
2017-01-04T00:44:35.171Z,18.58
2017-01-04T00:45:35.153Z,18.77
2017-01-04T00:46:35.131Z,18.68
2017-01-04T00:47:35.110Z,18.77
2017-01-04T00:48:35.087Z,18.58
2017-01-04T00:49:35.071Z,18.67
2017-01-04T00:50:35.049Z,19.05
2017-01-04T00:51:35.025Z,19.05
2017-01-04T00:52:35.059Z,19.15
2017-01-04T00:53:34.988Z,19.15
2017-01-04T00:54:34.967Z,18.96
2017-01-04T00:55:34.942Z,19.44
2017-01-04T00:56:34.923Z,19.73
2017-01-04T00:57:34.909Z,19.92
2017-01-04T00:58:34.883Z,19.81
2017-01-04T00:59:34.868Z,19.71
2017-01-04T01:00:34.846Z,19.63
2017-01-04T01:01:34.818Z,19.92
2017-01-04T01:02:34.802Z,20.09
2017-01-04T01:03:34.778Z,20
2017-01-04T01:04:34.761Z,20.47
2017-01-04T01:05:34.742Z,20.19
2017-01-04T01:06:34.721Z,20.57
2017-01-04T01:07:34.698Z,20.47
2017-01-04T01:08:34.726Z,20.57
2017-01-04T01:09:35.064Z,20.76
2017-01-04T01:10:34.632Z,20.85
2017-01-04T01:11:34.735Z,20.66
2017-01-04T01:12:34.592Z,20.57
2017-01-04T01:13:34.572Z,20.66
2017-01-04T01:14:34.571Z,20.77
2017-01-04T01:15:34.561Z,20.96
2017-01-04T01:16:34.506Z,20.86
2017-01-04T01:17:34.493Z,20.96
2017-01-04T01:18:34.470Z,21.43
2017-01-04T01:19:34.448Z,21.34
2017-01-04T01:20:34.430Z,21.43
2017-01-04T01:21:34.515Z,21.43
2017-01-04T01:22:34.392Z,21.15
2017-01-04T01:23:34.362Z,21.15
2017-01-04T01:24:34.342Z,20.86
2017-01-04T01:25:34.325Z,21.34
2017-01-04T01:26:34.298Z,21.43
2017-01-04T01:27:34.278Z,21.24
2017-01-04T01:28:34.258Z,21.34
2017-01-04T01:29:34.236Z,21.24
2017-01-04T01:30:34.220Z,21.53
2017-01-04T01:31:34.256Z,21.43
2017-01-04T01:32:34.579Z,21.34
2017-01-04T01:33:34.165Z,21.05
2017-01-04T01:34:34.142Z,20.77
2017-01-04T01:35:34.123Z,20.96
2017-01-04T01:36:34.099Z,20.86
2017-01-04T01:37:34.083Z,20.96
2017-01-04T01:38:34.048Z,21.34
2017-01-04T01:39:34.033Z,21.24
2017-01-04T01:40:34.007Z,21.34
2017-01-04T01:41:33.990Z,21.24
2017-01-04T01:42:33.970Z,21.34
2017-01-04T01:43:33.948Z,21.62
2017-01-04T01:44:33.930Z,21.53
2017-01-04T01:45:33.968Z,21.72
2017-01-04T01:46:33.897Z,21.72
2017-01-04T01:47:33.870Z,21.62
2017-01-04T01:48:33.842Z,22
2017-01-04T01:49:33.858Z,21.72
2017-01-04T01:50:33.802Z,21.53
2017-01-04T01:51:33.784Z,22
2017-01-04T01:52:33.766Z,22.09
2017-01-04T01:53:33.742Z,22.19
2017-01-04T01:54:33.722Z,22.09
2017-01-04T01:55:33.704Z,22.09
2017-01-04T01:56:33.682Z,22.66
2017-01-04T01:57:33.657Z,22.38
2017-01-04T01:58:33.639Z,22.09
2017-01-04T01:59:33.618Z,22.85
2017-01-04T02:00:33.595Z,23.04
2017-01-04T02:01:33.610Z,22.28
2017-01-04T02:02:33.555Z,22.28
2017-01-04T02:03:33.593Z,22.66
2017-01-04T02:04:33.522Z,23.04
2017-01-04T02:05:33.491Z,23.14
2017-01-04T02:06:33.479Z,23.14
2017-01-04T02:07:33.451Z,23.14
2017-01-04T02:08:33.430Z,23.24
2017-01-04T02:09:33.414Z,23.14
2017-01-04T02:10:33.392Z,23.43
2017-01-04T02:11:33.370Z,23.33
2017-01-04T02:12:33.434Z,23.33
2017-01-04T02:13:33.332Z,23.24
2017-01-04T02:14:33.314Z,23.43
2017-01-04T02:15:33.290Z,23.24
2017-01-04T02:16:33.266Z,23.33
2017-01-04T02:17:33.249Z,23.24
2017-01-04T02:18:33.229Z,23.43
2017-01-04T02:19:33.236Z,23.43
2017-01-04T02:20:33.184Z,23.24
2017-01-04T02:21:33.164Z,23.52
2017-01-04T02:22:33.143Z,23.52
2017-01-04T02:23:33.120Z,24.08
2017-01-04T02:24:33.098Z,24.37
2017-01-04T02:25:33.084Z,24.08
2017-01-04T02:26:33.062Z,24.28
2017-01-04T02:27:33.038Z,23.99
2017-01-04T02:28:33.014Z,24.08
2017-01-04T02:29:32.995Z,24.28
2017-01-04T02:30:33.374Z,23.99
2017-01-04T02:31:33.005Z,24.08
2017-01-04T02:32:32.930Z,24.08
2017-01-04T02:33:32.918Z,24.08
2017-01-04T02:34:32.897Z,23.99
2017-01-04T02:35:32.875Z,24.08
2017-01-04T02:36:32.850Z,24.08
2017-01-04T02:37:32.833Z,23.99
2017-01-04T02:38:32.815Z,24.18
2017-01-04T02:39:32.803Z,24.18
2017-01-04T02:40:32.772Z,24.08
2017-01-04T02:41:32.741Z,24.08
2017-01-04T02:42:32.777Z,24.28
2017-01-04T02:43:32.717Z,24.18
2017-01-04T02:44:32.682Z,24.28
2017-01-04T02:45:32.662Z,24.08
2017-01-04T02:46:32.644Z,24.18
2017-01-04T02:47:32.622Z,24.28
2017-01-04T02:48:32.599Z,24.28
2017-01-04T02:49:32.783Z,24.18
2017-01-04T02:50:32.561Z,24.18
2017-01-04T02:51:32.540Z,24.18
2017-01-04T02:52:32.567Z,24.08
2017-01-04T02:53:32.499Z,24.18
2017-01-04T02:54:32.481Z,24.28
2017-01-04T02:55:32.454Z,24.18
2017-01-04T02:56:32.439Z,24.18
2017-01-04T02:57:32.418Z,24.08
2017-01-04T02:58:32.394Z,24.18
2017-01-04T02:59:32.404Z,24.18
2017-01-04T03:00:32.361Z,24.08
2017-01-04T03:01:32.332Z,24.08
2017-01-04T03:02:32.314Z,24.18
2017-01-04T03:03:32.293Z,24.37
2017-01-04T03:04:32.270Z,24.18
2017-01-04T03:05:32.252Z,24.28
2017-01-04T03:06:32.231Z,24.08
2017-01-04T03:07:32.212Z,24.08
2017-01-04T03:08:32.186Z,24.56
2017-01-04T03:09:32.167Z,24.08
2017-01-04T03:10:32.144Z,24.08
2017-01-04T03:11:32.127Z,23.99
2017-01-04T03:12:32.105Z,24.56
2017-01-04T03:13:32.087Z,24.66
2017-01-04T03:14:32.063Z,24.66
2017-01-04T03:15:32.045Z,24.56
2017-01-04T03:16:32.021Z,24.75
2017-01-04T03:17:32.001Z,24.66
2017-01-04T03:18:31.983Z,24.66
2017-01-04T03:19:31.962Z,24.66
2017-01-04T03:20:31.937Z,24.66
2017-01-04T03:21:31.919Z,24.56
2017-01-04T03:22:31.901Z,24.56
2017-01-04T03:23:31.880Z,24.47
2017-01-04T03:24:31.860Z,24.56
2017-01-04T03:25:31.837Z,24.37
2017-01-04T03:26:31.821Z,24.37
2017-01-04T03:27:31.798Z,24.37
2017-01-04T03:28:31.776Z,24.85
2017-01-04T03:29:31.757Z,24.66
2017-01-04T03:30:31.737Z,24.66
2017-01-04T03:31:31.721Z,24.94
2017-01-04T03:32:31.695Z,25.13
2017-01-04T03:33:31.677Z,25.04
2017-01-04T03:34:31.652Z,25.32
2017-01-04T03:35:31.634Z,25.51
2017-01-04T03:36:31.611Z,25.51
2017-01-04T03:37:31.593Z,25.6
2017-01-04T03:38:31.574Z,25.42
2017-01-04T03:39:31.555Z,25.23
2017-01-04T03:40:31.530Z,25.23
2017-01-04T03:41:31.512Z,25.51
2017-01-04T03:42:31.514Z,25.51
2017-01-04T03:43:31.471Z,25.13
2017-01-04T03:44:31.448Z,25.04
2017-01-04T03:45:31.431Z,25.23
2017-01-04T03:46:31.405Z,25.6
2017-01-04T03:47:31.383Z,25.7
2017-01-04T03:48:31.366Z,25.32
2017-01-04T03:49:31.341Z,25.32
2017-01-04T03:50:31.325Z,25.13
2017-01-04T03:51:31.304Z,24.94
2017-01-04T03:52:31.284Z,24.94
2017-01-04T03:53:31.266Z,25.32
2017-01-04T03:54:31.242Z,25.32
2017-01-04T03:55:31.221Z,25.32
2017-01-04T03:56:31.199Z,25.23
2017-01-04T03:57:31.178Z,25.13
2017-01-04T03:58:31.156Z,25.32
2017-01-04T03:59:31.139Z,25.6
2017-01-04T04:00:31.119Z,25.32
2017-01-04T04:01:31.098Z,25.23
2017-01-04T04:02:31.077Z,25.04
2017-01-04T04:03:31.057Z,25.23
2017-01-04T04:04:31.034Z,24.85
2017-01-04T04:05:31.021Z,24.75
2017-01-04T04:06:30.999Z,24.37
2017-01-04T04:07:30.978Z,24.37
2017-01-04T04:08:30.951Z,24.47
2017-01-04T04:09:30.934Z,24.47
2017-01-04T04:10:30.915Z,24.37
2017-01-04T04:11:30.895Z,24.66
2017-01-04T04:12:30.882Z,24.66
2017-01-04T04:13:30.854Z,23.99
2017-01-04T04:14:30.835Z,24.08
2017-01-04T04:15:30.813Z,24.37
2017-01-04T04:16:30.793Z,23.9
2017-01-04T04:17:30.771Z,23.71
2017-01-04T04:18:30.753Z,23.8
2017-01-04T04:19:30.729Z,23.99
2017-01-04T04:20:30.713Z,23.43
2017-01-04T04:21:30.693Z,23.52
2017-01-04T04:22:30.668Z,23.52
2017-01-04T04:23:30.650Z,23.04
2017-01-04T04:24:30.628Z,23.24
2017-01-04T04:25:30.606Z,23.24
2017-01-04T04:26:30.590Z,23.33
2017-01-04T04:27:30.568Z,23.33
2017-01-04T04:28:30.547Z,23.14
2017-01-04T04:29:30.525Z,23.24
2017-01-04T04:30:30.510Z,23.33
2017-01-04T04:31:30.485Z,23.24
2017-01-04T04:32:30.464Z,23.04
2017-01-04T04:33:30.443Z,23.24
2017-01-04T04:34:30.424Z,23.04
2017-01-04T04:35:30.403Z,23.52
2017-01-04T04:36:30.384Z,23.61
2017-01-04T04:37:30.358Z,23.33
2017-01-04T04:38:30.346Z,23.33
2017-01-04T04:39:30.322Z,23.33
2017-01-04T04:40:30.301Z,23.43
2017-01-04T04:41:30.280Z,23.52
2017-01-04T04:42:30.264Z,23.61
2017-01-04T04:43:30.243Z,23.71
2017-01-04T04:44:30.219Z,24.28
2017-01-04T04:45:30.196Z,23.99
2017-01-04T04:46:30.177Z,24.18
2017-01-04T04:47:30.157Z,24.08
2017-01-04T04:48:30.140Z,24.18
2017-01-04T04:49:30.324Z,24.18
2017-01-04T04:50:30.101Z,23.99
2017-01-04T04:51:30.476Z,24.18
2017-01-04T04:52:30.060Z,24.37
2017-01-04T04:53:30.040Z,24.66
2017-01-04T04:54:30.021Z,24.28
2017-01-04T04:55:29.998Z,24.75
2017-01-04T04:56:29.982Z,24.94
2017-01-04T04:57:29.960Z,24.56
2017-01-04T04:58:29.935Z,24.94
2017-01-04T04:59:29.916Z,24.86
2017-01-04T05:00:29.901Z,25.13
2017-01-04T05:01:29.882Z,25.14
2017-01-04T05:02:29.855Z,25.14
2017-01-04T05:03:29.834Z,24.76
2017-01-04T05:04:29.815Z,24.76
2017-01-04T05:05:29.797Z,24.57
2017-01-04T05:06:29.778Z,24.48
2017-01-04T05:07:29.760Z,24.01
2017-01-04T05:08:29.736Z,24.1
2017-01-04T05:09:29.717Z,24.01
2017-01-04T05:10:29.695Z,23.24
2017-01-04T05:11:29.677Z,23.15
2017-01-04T05:12:29.656Z,23.44
2017-01-04T05:13:29.636Z,23.24
2017-01-04T05:14:29.617Z,22.96
2017-01-04T05:15:29.595Z,22.86
2017-01-04T05:16:29.575Z,22.2
2017-01-04T05:17:29.565Z,22.11
2017-01-04T05:18:29.536Z,22.49
2017-01-04T05:19:29.517Z,21.82
2017-01-04T05:20:29.498Z,21.73
2017-01-04T05:21:29.512Z,21.44
2017-01-04T05:22:29.455Z,21.15
2017-01-04T05:23:29.438Z,20.78
2017-01-04T05:24:29.416Z,20.4
2017-01-04T05:25:29.399Z,20.11
2017-01-04T05:26:29.376Z,20.4
2017-01-04T05:27:29.355Z,20.1
2017-01-04T05:28:29.335Z,19.92
2017-01-04T05:29:29.316Z,19.64
2017-01-04T05:30:29.297Z,19.07
2017-01-04T05:31:29.280Z,19.26
2017-01-04T05:32:29.260Z,18.98
2017-01-04T05:33:29.240Z,18.6
2017-01-04T05:34:29.219Z,18.6
2017-01-04T05:35:29.198Z,18.6
2017-01-04T05:36:29.176Z,19.35
2017-01-04T05:37:29.157Z,18.88
2017-01-04T05:38:29.136Z,19.26
2017-01-04T05:39:29.115Z,19.34
2017-01-04T05:40:29.102Z,18.96
2017-01-04T05:41:29.084Z,19.73
2017-01-04T05:42:29.062Z,19.63
2017-01-04T05:43:29.433Z,19.63
2017-01-04T05:44:29.017Z,19.82
2017-01-04T05:45:28.997Z,20.2
2017-01-04T05:46:28.980Z,20.86
2017-01-04T05:47:28.956Z,20.96
2017-01-04T05:48:28.937Z,20.86
2017-01-04T05:49:28.954Z,21.34
2017-01-04T05:50:28.896Z,21.91
2017-01-04T05:51:28.876Z,23.04
2017-01-04T05:52:28.857Z,23.61
2017-01-04T05:53:28.838Z,23.24
2017-01-04T05:54:28.815Z,23.14
2017-01-04T05:55:28.795Z,23.52
2017-01-04T05:56:28.773Z,24.18
2017-01-04T05:57:28.753Z,24.37
2017-01-04T05:58:29.134Z,24.37
2017-01-04T05:59:28.765Z,24.66
2017-01-04T06:00:28.699Z,24.37
2017-01-04T06:01:28.675Z,23.99
2017-01-04T06:02:28.653Z,24.28
2017-01-04T06:03:28.642Z,24.28
2017-01-04T06:04:28.666Z,24.18
2017-01-04T06:05:28.597Z,24.28
2017-01-04T06:06:28.573Z,24.85
2017-01-04T06:07:28.551Z,24.18
2017-01-04T06:08:28.536Z,24.28
2017-01-04T06:09:28.513Z,24.28
2017-01-04T06:10:28.493Z,23.99
2017-01-04T06:11:28.473Z,24.17
2017-01-04T06:12:28.501Z,24.08
2017-01-04T06:13:28.432Z,24.93
2017-01-04T06:14:28.410Z,24.27
2017-01-04T06:15:28.389Z,24.47
2017-01-04T06:16:28.370Z,24.65
2017-01-04T06:17:28.347Z,25.02
2017-01-04T06:18:28.335Z,26.45
2017-01-04T06:19:28.307Z,26.26
2017-01-04T06:20:28.289Z,26.26
2017-01-04T06:21:28.263Z,26.64
2017-01-04T06:22:28.244Z,28.06
2017-01-04T06:23:28.226Z,28.72
2017-01-04T06:24:28.202Z,28.53
2017-01-04T06:25:28.186Z,29.19
2017-01-04T06:26:28.162Z,29.29
2017-01-04T06:27:28.141Z,30.33
2017-01-04T06:28:28.127Z,31.09
2017-01-04T06:29:28.100Z,32.89
2017-01-04T06:30:28.082Z,33.46
2017-01-04T06:31:28.062Z,34.22
2017-01-04T06:32:28.039Z,37.54
2017-01-04T06:33:28.017Z,40.09
2017-01-04T06:34:27.997Z,42.66
2017-01-04T06:35:27.978Z,45.03
2017-01-04T06:36:27.958Z,46.16
2017-01-04T06:37:27.938Z,48.72
2017-01-04T06:38:27.918Z,49.38
2017-01-04T06:39:27.944Z,53.56
2017-01-04T06:40:27.879Z,53.84
2017-01-04T06:41:27.855Z,51.57
2017-01-04T06:42:27.833Z,52.89
2017-01-04T06:43:27.815Z,54.98
2017-01-04T06:44:27.793Z,56.59
2017-01-04T06:45:27.773Z,57.82
2017-01-04T06:46:27.752Z,55.55
2017-01-04T06:47:27.731Z,58.01
2017-01-04T06:48:27.713Z,60.1
2017-01-04T06:49:27.890Z,60.47
2017-01-04T06:50:27.669Z,57.54
2017-01-04T06:51:27.647Z,57.73
2017-01-04T06:52:27.625Z,61.43
2017-01-04T06:53:27.615Z,58.58
2017-01-04T06:54:27.590Z,56.59
2017-01-04T06:55:27.567Z,54.5
2017-01-04T06:56:27.548Z,54.22
2017-01-04T06:57:27.524Z,52.89
2017-01-04T06:58:27.504Z,52.14
2017-01-04T06:59:27.490Z,54.88
2017-01-04T07:00:27.460Z,53.37
2017-01-04T07:01:27.437Z,51.95
2017-01-04T07:02:27.418Z,53.46
2017-01-04T07:03:27.402Z,52.14
2017-01-04T07:04:27.374Z,48.72
2017-01-04T07:05:27.390Z,48.06
2017-01-04T07:06:27.335Z,45.21
2017-01-04T07:07:27.311Z,44.74
2017-01-04T07:08:27.321Z,45.97
2017-01-04T07:09:27.275Z,46.64
2017-01-04T07:10:27.253Z,47.02
2017-01-04T07:11:27.239Z,43.79
2017-01-04T07:12:27.212Z,43.51
2017-01-04T07:13:27.190Z,44.93
2017-01-04T07:14:27.165Z,44.17
2017-01-04T07:15:27.154Z,41.89
2017-01-04T07:16:27.127Z,43.79
2017-01-04T07:17:27.107Z,45.88
2017-01-04T07:18:27.088Z,43.41
2017-01-04T07:19:27.064Z,43.32
2017-01-04T07:20:27.052Z,42.47
2017-01-04T07:21:27.021Z,42.37
2017-01-04T07:22:27.003Z,40.76
2017-01-04T07:23:26.985Z,40.09
2017-01-04T07:24:26.961Z,39.43
2017-01-04T07:25:26.949Z,38.29
2017-01-04T07:26:26.923Z,37.63
2017-01-04T07:27:26.906Z,35.93
2017-01-04T07:28:26.888Z,36.49
2017-01-04T07:29:26.857Z,36.3
2017-01-04T07:30:26.839Z,35.83
2017-01-04T07:31:27.215Z,36.87
2017-01-04T07:32:26.798Z,37.54
2017-01-04T07:33:26.779Z,38.01
2017-01-04T07:34:26.755Z,38.48
2017-01-04T07:35:26.737Z,39.43
2017-01-04T07:36:26.717Z,40.5
2017-01-04T07:37:26.694Z,41.89
2017-01-04T07:38:26.674Z,43.53
2017-01-04T07:39:26.653Z,45.81
2017-01-04T07:40:27.079Z,45.52
2017-01-04T07:41:26.617Z,45.24
2017-01-04T07:42:26.656Z,45.05
2017-01-04T07:43:26.570Z,44.46
2017-01-04T07:44:26.551Z,44.57
2017-01-04T07:45:26.587Z,44.65
2017-01-04T07:46:26.513Z,44.27
2017-01-04T07:47:26.488Z,43.72
2017-01-04T07:48:26.468Z,44.29
2017-01-04T07:49:26.501Z,44.84
2017-01-04T07:50:26.426Z,45.78
2017-01-04T07:51:26.410Z,51.18
2017-01-04T07:52:26.387Z,51.4
2017-01-04T07:53:26.366Z,51.68
2017-01-04T07:54:26.346Z,54.53
2017-01-04T07:55:26.322Z,55.74
2017-01-04T07:56:26.306Z,56.15
2017-01-04T07:57:26.287Z,56.34
2017-01-04T07:58:26.308Z,56.9
2017-01-04T07:59:26.239Z,56.71
2017-01-04T08:00:26.217Z,55.64
2017-01-04T08:01:26.205Z,55.67
2017-01-04T08:02:26.188Z,59.44
2017-01-04T08:03:26.157Z,59.84
2017-01-04T08:04:26.141Z,61.55
2017-01-04T08:05:26.119Z,62.69
2017-01-04T08:06:26.094Z,62.02
2017-01-04T08:07:26.073Z,61.65
2017-01-04T08:08:26.058Z,62.21
2017-01-04T08:09:26.044Z,64.68
2017-01-04T08:10:26.425Z,64.2
2017-01-04T08:11:26.002Z,66.86
2017-01-04T08:12:25.976Z,66.77
2017-01-04T08:13:25.951Z,69.9
2017-01-04T08:14:25.930Z,69.8
2017-01-04T08:15:25.911Z,74.54
2017-01-04T08:16:25.901Z,71.7
2017-01-04T08:17:25.868Z,73.5
2017-01-04T08:18:25.854Z,71.85
2017-01-04T08:19:25.826Z,73.41
2017-01-04T08:20:25.806Z,71.32
2017-01-04T08:21:25.796Z,74.6
2017-01-04T08:22:25.768Z,75.74
2017-01-04T08:23:25.745Z,74.79
2017-01-04T08:24:25.727Z,80.38
2017-01-04T08:25:25.706Z,82.09
2017-01-04T08:26:25.713Z,83.84
2017-01-04T08:27:25.664Z,82.23
2017-01-04T08:28:25.646Z,82.23
2017-01-04T08:29:25.624Z,84.69
2017-01-04T08:30:25.603Z,86.02
2017-01-04T08:31:25.597Z,85.64
2017-01-04T08:32:25.558Z,89.81
2017-01-04T08:33:25.598Z,92.85
2017-01-04T08:34:25.540Z,90.57
2017-01-04T08:35:25.504Z,94.27
2017-01-04T08:36:25.488Z,94.37
2017-01-04T08:37:25.463Z,96.92
2017-01-04T08:38:25.442Z,98.92
2017-01-04T08:39:25.419Z,96.17
2017-01-04T08:40:25.399Z,97.69
2017-01-04T08:41:25.375Z,98.35
2017-01-04T08:42:25.357Z,99.99
2017-01-04T08:43:25.348Z,99.2
2017-01-04T08:44:25.326Z,99.68
2017-01-04T08:45:25.298Z,99.77
2017-01-04T08:46:25.278Z,99.99
2017-01-04T08:47:25.258Z,97.59
2017-01-04T08:48:25.237Z,96.92
2017-01-04T08:49:25.421Z,96.92
2017-01-04T08:50:25.248Z,96.92
2017-01-04T08:51:25.174Z,96.17
2017-01-04T08:52:25.156Z,95.98
2017-01-04T08:53:25.136Z,99.99
2017-01-04T08:54:25.116Z,99.99
2017-01-04T08:55:25.099Z,99.99
2017-01-04T08:56:25.077Z,99.99
2017-01-04T08:57:25.058Z,99.99
2017-01-04T08:58:25.037Z,99.99
2017-01-04T08:59:25.017Z,99.99
2017-01-04T09:00:25.003Z,99.99
2017-01-04T09:01:24.980Z,99.99
2017-01-04T09:02:24.967Z,99.99
2017-01-04T09:03:24.950Z,99.99
2017-01-04T09:04:24.929Z,99.99
2017-01-04T09:05:24.902Z,99.99
2017-01-04T09:06:24.886Z,99.99
2017-01-04T09:07:24.863Z,99.99
2017-01-04T09:08:24.846Z,99.99
2017-01-04T09:09:24.823Z,99.99
2017-01-04T09:10:24.801Z,99.99
2017-01-04T09:11:24.784Z,99.99
2017-01-04T09:12:24.769Z,99.99
2017-01-04T09:13:24.743Z,98.78
2017-01-04T09:14:24.734Z,98.25
2017-01-04T09:15:24.711Z,99.99
2017-01-04T09:16:24.690Z,99.99
2017-01-04T09:17:24.668Z,99.39
2017-01-04T09:18:24.652Z,96.08
2017-01-04T09:19:24.629Z,97.21
2017-01-04T09:20:24.615Z,97.69
2017-01-04T09:21:24.984Z,97.02
2017-01-04T09:22:24.572Z,94.46
2017-01-04T09:23:24.550Z,96.08
2017-01-04T09:24:24.529Z,94.93
2017-01-04T09:25:24.516Z,92.47
2017-01-04T09:26:24.494Z,88.29
2017-01-04T09:27:24.484Z,95.12
2017-01-04T09:28:24.454Z,94.65
2017-01-04T09:29:24.446Z,93.61
2017-01-04T09:30:24.414Z,95.6
2017-01-04T09:31:24.395Z,99.99
2017-01-04T09:32:24.427Z,97.69
2017-01-04T09:33:24.758Z,99.99
2017-01-04T09:34:24.338Z,99.99
2017-01-04T09:35:24.314Z,99.99
2017-01-04T09:36:24.302Z,99.99
2017-01-04T09:37:24.280Z,99.99
2017-01-04T09:38:24.257Z,99.99
2017-01-04T09:39:24.237Z,99.99
2017-01-04T09:40:24.223Z,99.99
2017-01-04T09:41:24.196Z,99.99
2017-01-04T09:42:24.178Z,99.99
2017-01-04T09:43:24.162Z,99.99
2017-01-04T09:44:24.143Z,99.99
2017-01-04T09:45:24.127Z,99.99
2017-01-04T09:46:24.103Z,99.99
2017-01-04T09:47:24.135Z,99.99
2017-01-04T09:48:24.063Z,99.99
2017-01-04T09:49:24.048Z,99.99
2017-01-04T09:50:24.029Z,99.99
2017-01-04T09:51:24.019Z,99.99
2017-01-04T09:52:23.994Z,99.99
2017-01-04T09:53:24.361Z,99.99
2017-01-04T09:54:23.942Z,99.99
2017-01-04T09:55:23.923Z,99.99
2017-01-04T09:56:23.910Z,99.99
2017-01-04T09:57:23.886Z,99.99
2017-01-04T09:58:23.900Z,99.99
2017-01-04T09:59:24.292Z,99.99
2017-01-04T10:00:23.826Z,99.99
2017-01-04T10:01:23.806Z,99.99
2017-01-04T10:02:23.787Z,99.99
2017-01-04T10:03:23.793Z,99.99
2017-01-04T10:04:23.781Z,99.99
2017-01-04T10:05:23.731Z,99.99
2017-01-04T10:06:23.724Z,99.99
2017-01-04T10:07:23.692Z,99.99
2017-01-04T10:08:23.678Z,99.99
2017-01-04T10:09:23.652Z,99.99
2017-01-04T10:10:23.632Z,99.99
2017-01-04T10:11:23.616Z,99.99
2017-01-04T10:12:23.624Z,99.99
2017-01-04T10:13:23.578Z,99.99
2017-01-04T10:14:23.558Z,99.99
2017-01-04T10:15:23.556Z,99.99
2017-01-04T10:16:23.518Z,99.99
2017-01-04T10:17:23.501Z,99.99
2017-01-04T10:18:23.481Z,99.99
2017-01-04T10:19:23.469Z,99.99
2017-01-04T10:20:23.453Z,99.99
2017-01-04T10:21:23.430Z,99.99
2017-01-04T10:22:23.409Z,99.99
2017-01-04T10:23:23.389Z,99.99
2017-01-04T10:24:23.373Z,99.99
2017-01-04T10:25:23.773Z,99.99
2017-01-04T10:26:23.346Z,99.99
2017-01-04T10:27:23.719Z,99.99
2017-01-04T10:28:23.302Z,99.99
2017-01-04T10:29:23.284Z,99.99
2017-01-04T10:30:23.277Z,99.99
2017-01-04T10:31:23.290Z,99.99
2017-01-04T10:32:23.236Z,99.99
2017-01-04T10:33:23.220Z,99.99
2017-01-04T10:34:23.207Z,99.99
2017-01-04T10:35:23.188Z,99.99
2017-01-04T10:36:23.169Z,99.99
2017-01-04T10:37:23.611Z,99.99
2017-01-04T10:38:23.147Z,99.99
2017-01-04T10:39:23.118Z,99.99
2017-01-04T10:40:23.104Z,99.99
2017-01-04T10:41:23.082Z,99.99
2017-01-04T10:42:23.096Z,99.99
2017-01-04T10:43:23.057Z,99.99
2017-01-04T10:44:23.034Z,99.99
2017-01-04T10:45:23.016Z,99.99
2017-01-04T10:46:22.997Z,99.99
2017-01-04T10:47:22.989Z,99.99
2017-01-04T10:48:22.968Z,99.99
2017-01-04T10:49:23.360Z,99.99
2017-01-04T10:50:23.329Z,99.99
2017-01-04T10:51:22.909Z,99.99
2017-01-04T10:52:22.894Z,99.99
2017-01-04T10:53:22.885Z,99.99
2017-01-04T10:54:22.857Z,99.99
2017-01-04T10:55:22.843Z,99.99
2017-01-04T10:56:23.033Z,99.99
2017-01-04T10:57:22.803Z,99.99
2017-01-04T10:58:22.785Z,99.99
2017-01-04T10:59:22.766Z,99.99
2017-01-04T11:00:22.757Z,99.99
2017-01-04T11:01:22.733Z,99.99
2017-01-04T11:02:22.722Z,99.99
2017-01-04T11:03:22.720Z,99.99
2017-01-04T11:04:22.683Z,99.99
2017-01-04T11:05:22.655Z,99.99
2017-01-04T11:06:22.840Z,99.99
2017-01-04T11:07:22.620Z,99.99
2017-01-04T11:08:22.601Z,99.99
2017-01-04T11:09:22.592Z,99.99
2017-01-04T11:10:22.562Z,99.99
2017-01-04T11:11:22.547Z,99.99
2017-01-04T11:12:22.524Z,99.99
2017-01-04T11:13:22.558Z,99.99
2017-01-04T11:14:22.551Z,99.99
2017-01-04T11:15:22.470Z,99.99
2017-01-04T11:16:22.453Z,99.99
2017-01-04T11:17:22.433Z,99.99
2017-01-04T11:18:22.416Z,99.99
2017-01-04T11:19:22.393Z,99.99
2017-01-04T11:20:22.377Z,99.99
2017-01-04T11:21:22.365Z,99.99
2017-01-04T11:22:22.339Z,99.99
2017-01-04T11:23:22.331Z,99.99
2017-01-04T11:24:22.303Z,99.99
2017-01-04T11:25:22.283Z,99.99
2017-01-04T11:26:22.269Z,99.99
2017-01-04T11:27:22.249Z,99.99
2017-01-04T11:28:22.240Z,99.99
2017-01-04T11:29:22.216Z,99.99
2017-01-04T11:30:22.217Z,99.99
2017-01-04T11:31:22.177Z,99.99
2017-01-04T11:32:22.158Z,99.99
2017-01-04T11:33:22.142Z,99.99
2017-01-04T11:34:22.127Z,99.99
2017-01-04T11:35:22.106Z,99.99
2017-01-04T11:36:22.108Z,99.99
2017-01-04T11:37:22.081Z,99.99
2017-01-04T11:38:22.058Z,99.99
2017-01-04T11:39:22.041Z,99.99
2017-01-04T11:40:22.030Z,99.99
2017-01-04T11:41:22.010Z,99.99
2017-01-04T11:42:22.006Z,99.99
2017-01-04T11:43:21.970Z,99.99
2017-01-04T11:44:21.979Z,99.99
2017-01-04T11:45:21.941Z,99.99
2017-01-04T11:46:21.921Z,99.99
2017-01-04T11:47:21.903Z,99.99
2017-01-04T11:48:21.888Z,99.99
2017-01-04T11:49:21.872Z,99.99
2017-01-04T11:50:21.853Z,99.99
2017-01-04T11:51:21.837Z,99.99
2017-01-04T11:52:21.819Z,99.99
2017-01-04T11:53:21.799Z,99.99
2017-01-04T11:54:21.786Z,99.99
2017-01-04T11:55:21.771Z,99.99
2017-01-04T11:56:21.751Z,99.99
2017-01-04T11:57:22.133Z,99.99
2017-01-04T11:58:21.717Z,99.99
2017-01-04T11:59:21.701Z,99.99
2017-01-04T12:00:21.680Z,99.99
2017-01-04T12:01:21.660Z,99.99
2017-01-04T12:02:21.646Z,99.99
2017-01-04T12:03:21.630Z,99.99
2017-01-04T12:04:21.614Z,99.99
2017-01-04T12:05:21.594Z,99.99
2017-01-04T12:06:21.580Z,99.99
2017-01-04T12:07:21.561Z,99.99
2017-01-04T12:08:21.550Z,99.99
2017-01-04T12:09:21.530Z,99.99
2017-01-04T12:10:21.513Z,99.99
2017-01-04T12:11:21.492Z,99.99
2017-01-04T12:12:21.480Z,99.99
2017-01-04T12:13:21.463Z,99.99
2017-01-04T12:14:21.446Z,99.99
2017-01-04T12:15:21.429Z,99.99
2017-01-04T12:16:21.409Z,99.99
2017-01-04T12:17:21.399Z,99.99
2017-01-04T12:18:21.376Z,99.99
2017-01-04T12:19:21.357Z,99.99
2017-01-04T12:20:21.342Z,99.99
2017-01-04T12:21:21.323Z,99.99
2017-01-04T12:22:21.308Z,99.99
2017-01-04T12:23:21.291Z,99.99
2017-01-04T12:24:21.272Z,99.99
2017-01-04T12:25:21.253Z,99.99
2017-01-04T12:26:21.245Z,99.99
2017-01-04T12:27:21.215Z,99.99
2017-01-04T12:28:21.198Z,99.99
2017-01-04T12:29:21.180Z,99.99
2017-01-04T12:30:21.166Z,99.99
2017-01-04T12:31:21.144Z,99.99
2017-01-04T12:32:21.128Z,99.99
2017-01-04T12:33:21.111Z,99.99
2017-01-04T12:34:21.090Z,99.99
2017-01-04T12:35:21.072Z,99.99
2017-01-04T12:36:21.051Z,99.99
2017-01-04T12:37:21.464Z,99.99
2017-01-04T12:38:21.038Z,99.99
2017-01-04T12:39:20.998Z,99.99
2017-01-04T12:40:21.002Z,99.99
2017-01-04T12:41:20.966Z,99.99
2017-01-04T12:42:20.950Z,99.99
2017-01-04T12:43:20.996Z,99.99
2017-01-04T12:44:20.912Z,99.99
2017-01-04T12:45:20.892Z,99.99
2017-01-04T12:46:20.875Z,99.99
2017-01-04T12:47:20.857Z,99.99
2017-01-04T12:48:20.843Z,99.99
2017-01-04T12:49:20.820Z,99.99
2017-01-04T12:50:20.804Z,99.99
2017-01-04T12:51:20.790Z,99.99
2017-01-04T12:52:20.771Z,99.99
2017-01-04T12:53:20.751Z,99.99
2017-01-04T12:54:20.733Z,99.99